Kashima Maru No.7 — JJGM — position and weather

sailwx.info

Track history (hours):
 
Tides and Currents Weather Stations Pressure Air Temp Water Temp Dewpoint Dewpoint Depression Visibility Wind Speed Wind Dir Waves Ship Positions

Kashima Maru No.7

Last reported at 2017-Dec-09 06:03 UTC. Time now 2017-Dec-12 12:22 UTC.
Position N 34°24' E 130°28'.

Length 72 m; draft 4.4 m.

Type: Tanker. MMSI: 432480000.

Date/timePositionNaut miles runAvg speedWind from/ knotsBaromVisibWave heightAir tempDewpointWater temp
2017-Dec-09 06:03N 34°24' E 130°28'111.8
2017-Dec-09 06:00N 34°23' E 130°28'611.6
2017-Dec-09 05:30N 34°19' E 130°33'611.5
2017-Dec-09 05:00N 34°15' E 130°37'611.3
2017-Dec-09 04:30N 34°10' E 130°41'611.2
2017-Dec-09 04:00N 34°06' E 130°45'611.4
2017-Dec-09 03:30N 34°02' E 130°50'510.6
2017-Dec-09 03:00N 33°57' E 130°52'4 8.3
2017-Dec-09 02:30N 33°57' E 130°57'5 9.2
2017-Dec-09 02:00N 33°58' E 131°03'612.7
2017-Dec-09 01:30N 33°54' E 131°09'713.0
2017-Dec-09 01:00N 33°52' E 131°16'612.7
2017-Dec-09 00:30N 33°50' E 131°24'612.6
2017-Dec-09 00:00N 33°49' E 131°31'712.4
2017-Dec-08 23:29N 33°47' E 131°39'612.0
2017-Dec-08 22:59N 33°46' E 131°46'2111.9
2017-Dec-08 21:14N 33°43' E 132°10'2312.7
2017-Dec-08 19:25N 33°53' E 132°35'513.0
2017-Dec-08 19:00N 33°56' E 132°40'9611.1
2017-Dec-08 10:18N 34°28' E 134°30'411.7
2017-Dec-08 10:00N 34°29' E 134°34'611.5
2017-Dec-08 09:30N 34°31' E 134°41'611.4
2017-Dec-08 09:00N 34°33' E 134°47'610.5
2017-Dec-08 08:29N 34°35' E 134°53'510.0
2017-Dec-08 08:00N 34°37' E 134°58'4 8.6
2017-Dec-08 07:30N 34°36' E 135°04'5 9.3
2017-Dec-08 07:00N 34°31' E 135°04'611.9
2017-Dec-08 06:30N 34°26' E 135°03'611.7
2017-Dec-08 06:00N 34°20' E 135°00'611.0
2017-Dec-08 05:30N 34°15' E 135°01'611.9
2017-Dec-08 05:00N 34°10' E 135°05'4 7.0
2017-Dec-08 04:30N 34°07' E 135°08'0 0.0
2017-Dec-08 04:00N 34°07' E 135°08'0 0.0
2017-Dec-08 02:38N 34°07' E 135°08'0 0.0
2017-Dec-08 02:20N 34°07' E 135°08'0 0.0
2017-Dec-08 01:44N 34°07' E 135°08'0 0.0
2017-Dec-08 01:26N 34°07' E 135°08'0 0.0
2017-Dec-08 00:56N 34°07' E 135°08'0 1.0
2017-Dec-08 00:28N 34°07' E 135°08'0 0.0
2017-Dec-07 18:56N 34°07' E 135°07'0 0.1
2017-Dec-07 18:08N 34°07' E 135°07'0 0.0
2017-Dec-07 17:44N 34°07' E 135°07'0 0.0
2017-Dec-07 17:08N 34°07' E 135°07'0 0.0
2017-Dec-07 16:56N 34°07' E 135°07'0 0.0
2017-Dec-07 16:26N 34°07' E 135°07'0 0.0
2017-Dec-07 14:20N 34°07' E 135°07'0 0.0
2017-Dec-07 13:45N 34°07' E 135°07'0 0.0
2017-Dec-07 13:20N 34°07' E 135°07'0 0.0
2017-Dec-07 11:26N 34°07' E 135°07'0 0.0
2017-Dec-07 10:14N 34°07' E 135°07'0 0.0
2017-Dec-07 09:20N 34°07' E 135°07'0 0.1
2017-Dec-07 08:50N 34°07' E 135°07'1 0.2
2017-Dec-07 06:34N 34°07' E 135°08'0 0.0
2017-Dec-07 06:28N 34°07' E 135°08'0 0.0
2017-Dec-07 05:58N 34°07' E 135°08'0 0.6
2017-Dec-07 05:21N 34°07' E 135°08'1 2.2
2017-Dec-07 05:00N 34°08' E 135°07'3 4.0
2017-Dec-07 04:20N 34°09' E 135°10'0 0.0
2017-Dec-07 03:56N 34°09' E 135°10'0 0.0
2017-Dec-07 03:26N 34°09' E 135°10'0 0.0
2017-Dec-07 02:56N 34°09' E 135°10'0 0.0
2017-Dec-07 02:26N 34°09' E 135°10'0 0.1
2017-Dec-07 01:56N 34°09' E 135°10'0 0.1
2017-Dec-07 01:26N 34°09' E 135°10'0 0.0
2017-Dec-07 00:59N 34°09' E 135°10'0 0.0
2017-Dec-07 00:29N 34°09' E 135°10'0 0.0
2017-Dec-06 23:59N 34°09' E 135°10'0 0.0
2017-Dec-06 23:29N 34°09' E 135°10'0 0.0
2017-Dec-06 22:59N 34°09' E 135°10'0 0.0
2017-Dec-06 22:29N 34°09' E 135°10'0 0.0
2017-Dec-06 21:59N 34°09' E 135°10'0 0.0
2017-Dec-06 21:29N 34°09' E 135°10'0 0.0
2017-Dec-06 20:59N 34°09' E 135°10'  
2017-Dec-04 09:53N 34°07' E 135°07'0 0.3
2017-Dec-04 09:28N 34°07' E 135°08'0 0.7
2017-Dec-04 08:50N 34°07' E 135°08'0 0.0
2017-Dec-04 07:26N 34°07' E 135°08'0 0.0
2017-Dec-04 06:50N 34°07' E 135°08'1 1.2
2017-Dec-04 06:25N 34°07' E 135°08'0 0.1
2017-Dec-04 05:55N 34°07' E 135°08'0 0.1
2017-Dec-04 05:22N 34°07' E 135°08'0 0.1
2017-Dec-04 04:55N 34°07' E 135°08'0 0.0
2017-Dec-04 04:19N 34°07' E 135°08'0 0.0
2017-Dec-04 03:55N 34°07' E 135°08'0 0.0
2017-Dec-04 03:19N 34°07' E 135°08'0 0.0
2017-Dec-04 02:19N 34°07' E 135°08'0 0.0
2017-Dec-04 01:07N 34°07' E 135°08'0 0.1
2017-Dec-04 00:46N 34°07' E 135°08'0 0.0
2017-Dec-04 00:13N 34°07' E 135°08'0 0.0
2017-Dec-03 23:58N 34°07' E 135°08'0 0.0
2017-Dec-03 23:25N 34°07' E 135°08'0 0.0
2017-Dec-03 22:55N 34°07' E 135°08'0 0.0
2017-Dec-03 22:25N 34°07' E 135°08'0 0.0
2017-Dec-03 21:46N 34°07' E 135°08'0 0.0
2017-Dec-03 21:13N 34°07' E 135°08'0 0.0
2017-Dec-03 20:43N 34°07' E 135°08'0 0.0
2017-Dec-03 20:13N 34°07' E 135°08'0 0.0
2017-Dec-03 19:55N 34°07' E 135°08'0 0.0
2017-Dec-03 19:25N 34°07' E 135°08'0 0.0
2017-Dec-03 18:49N 34°07' E 135°08'0 0.0
2017-Dec-03 18:28N 34°07' E 135°08'0 0.0
2017-Dec-03 17:31N 34°07' E 135°08'0 1.0
2017-Dec-03 17:28N 34°07' E 135°08'0 0.1
2017-Dec-03 16:31N 34°07' E 135°08'0 0.0
2017-Dec-03 16:25N 34°07' E 135°08'0 0.0
2017-Dec-03 15:49N 34°07' E 135°08'0 0.0
2017-Dec-03 15:19N 34°07' E 135°08'0 0.0
2017-Dec-03 14:55N 34°07' E 135°08'0 0.0
2017-Dec-03 14:13N 34°07' E 135°08'0 0.1
2017-Dec-03 13:52N 34°07' E 135°08'0 0.0
2017-Dec-03 13:07N 34°07' E 135°08'0 0.0
2017-Dec-03 12:55N 34°07' E 135°08'0 0.0
2017-Dec-03 12:19N 34°07' E 135°08'0 0.0
2017-Dec-03 11:49N 34°07' E 135°08'0 0.0
2017-Dec-03 11:25N 34°07' E 135°08'0 0.0
2017-Dec-03 10:55N 34°07' E 135°08'0 0.0
2017-Dec-03 10:25N 34°07' E 135°08'0 0.0
2017-Dec-03 09:52N 34°07' E 135°08'0 0.0
2017-Dec-03 09:25N 34°07' E 135°08'0 0.1
2017-Dec-03 08:55N 34°07' E 135°08'0 0.0
2017-Dec-03 07:49N 34°07' E 135°08'0 0.0
2017-Dec-03 07:25N 34°07' E 135°08'0 0.0
2017-Dec-03 06:49N 34°07' E 135°08'0 0.0
2017-Dec-03 06:25N 34°07' E 135°08'0 0.0
2017-Dec-03 05:55N 34°07' E 135°08'0 0.0
2017-Dec-03 05:25N 34°07' E 135°08'0 0.0
2017-Dec-03 04:55N 34°07' E 135°08'0 0.0
2017-Dec-03 04:25N 34°07' E 135°08'0 0.0
2017-Dec-03 03:55N 34°07' E 135°08'0 0.8
2017-Dec-03 03:19N 34°07' E 135°08'0 0.0
2017-Dec-03 01:43N 34°07' E 135°08'0 0.0
2017-Dec-03 01:25N 34°07' E 135°08'0 0.1
2017-Dec-03 00:46N 34°07' E 135°08'1 0.2
2017-Dec-02 22:13N 34°07' E 135°08'0 0.0
2017-Dec-02 20:46N 34°08' E 135°08'0 0.0
2017-Dec-02 20:25N 34°08' E 135°08'0 0.0
2017-Dec-02 19:07N 34°08' E 135°08'0 0.0
2017-Dec-02 18:49N 34°08' E 135°08'0 0.0
2017-Dec-02 17:01N 34°08' E 135°08'0 0.5
2017-Dec-02 16:55N 34°08' E 135°08'0 0.0
2017-Dec-02 13:31N 34°08' E 135°08'0 0.0
2017-Dec-02 13:19N 34°08' E 135°08'0 0.0
2017-Dec-02 11:46N 34°08' E 135°08'0 0.6
2017-Dec-02 11:30N 34°07' E 135°07'611.5
2017-Dec-02 11:00N 34°07' E 135°00'612.6
2017-Dec-02 10:30N 34°07' E 134°53'712.9
2017-Dec-02 10:00N 34°07' E 134°45'612.4
2017-Dec-02 09:30N 34°12' E 134°40'5 9.4
2017-Dec-02 09:00N 34°16' E 134°37'612.9
2017-Dec-02 08:30N 34°18' E 134°30'8 0.5
2017-Dec-01 14:30N 34°27' E 134°27'612.0
2017-Dec-01 13:58N 34°29' E 134°35'511.9
2017-Dec-01 13:30N 34°31' E 134°41'611.7
2017-Dec-01 13:00N 34°34' E 134°47'611.7
2017-Dec-01 12:30N 34°36' E 134°54'611.9
2017-Dec-01 12:00N 34°37' E 135°01'611.8
2017-Dec-01 11:30N 34°35' E 135°07'612.1
2017-Dec-01 11:00N 34°34' E 135°15'612.0
2017-Dec-01 10:30N 34°33' E 135°22'3 5.5
2017-Dec-01 10:00N 34°32' E 135°25'0 0.0
2017-Dec-01 09:30N 34°32' E 135°25'0 0.0
2017-Dec-01 09:00N 34°32' E 135°25'0 0.0
2017-Dec-01 08:30N 34°32' E 135°25'0 0.0
2017-Dec-01 07:56N 34°32' E 135°25'0 0.0
2017-Dec-01 07:26N 34°32' E 135°25'0 0.0
2017-Dec-01 06:59N 34°32' E 135°25'0 0.0
2017-Dec-01 06:26N 34°32' E 135°25'0 0.0
2017-Dec-01 05:59N 34°32' E 135°25'0 0.0
2017-Dec-01 05:29N 34°32' E 135°25'0 0.0
2017-Dec-01 04:59N 34°32' E 135°25'0 0.0
2017-Dec-01 04:26N 34°32' E 135°25'1 2.7
2017-Dec-01 04:00N 34°32' E 135°24'1 1.8
2017-Dec-01 03:30N 34°33' E 135°23'1 1.6
2017-Dec-01 03:00N 34°32' E 135°22'0 0.0
2017-Dec-01 02:30N 34°32' E 135°22'0 0.0
2017-Dec-01 01:57N 34°32' E 135°22'0 0.0
2017-Dec-01 01:30N 34°32' E 135°22'0 0.0
2017-Dec-01 01:00N 34°32' E 135°22'0 0.0
2017-Dec-01 00:30N 34°32' E 135°22'0 0.0
2017-Nov-30 23:57N 34°32' E 135°22'0 0.0
2017-Nov-30 23:24N 34°32' E 135°22'0 0.0
2017-Nov-30 22:57N 34°32' E 135°22'0 0.0
2017-Nov-30 22:30N 34°32' E 135°22'0 0.0
2017-Nov-30 22:00N 34°32' E 135°22'0 0.0
2017-Nov-30 21:30N 34°32' E 135°22'0 0.0
2017-Nov-30 21:00N 34°32' E 135°22'0 0.0
2017-Nov-30 20:31N 34°32' E 135°22'0 0.0
2017-Nov-30 20:01N 34°32' E 135°22'0 0.0
2017-Nov-30 19:31N 34°32' E 135°22'0 0.0
2017-Nov-30 19:01N 34°32' E 135°22'0 0.0
2017-Nov-30 18:30N 34°32' E 135°22'0 0.0
2017-Nov-30 18:00N 34°32' E 135°22'0 0.0
2017-Nov-30 17:31N 34°32' E 135°22'0 0.0
2017-Nov-30 17:00N 34°32' E 135°22'0 0.0
2017-Nov-30 16:30N 34°32' E 135°22'0 0.0
2017-Nov-30 16:01N 34°32' E 135°22'0 0.0
2017-Nov-30 15:31N 34°32' E 135°22'0 0.1
2017-Nov-30 15:00N 34°32' E 135°22'0 0.1
2017-Nov-30 14:30N 34°32' E 135°22'0 0.0
2017-Nov-30 14:01N 34°32' E 135°22'0 0.1
2017-Nov-30 13:31N 34°32' E 135°22'0 0.0
2017-Nov-30 13:01N 34°32' E 135°22'0 0.0
2017-Nov-30 12:30N 34°32' E 135°22'0 0.0
2017-Nov-30 12:01N 34°32' E 135°22'0 0.1
2017-Nov-30 11:31N 34°32' E 135°22'0 0.0
2017-Nov-30 11:00N 34°32' E 135°22'0 0.0
2017-Nov-30 10:30N 34°32' E 135°22'0 0.1
2017-Nov-30 10:01N 34°32' E 135°22'0 0.0
2017-Nov-30 09:31N 34°32' E 135°22'0 0.1
2017-Nov-30 09:00N 34°32' E 135°22'0 0.0
2017-Nov-30 08:31N 34°32' E 135°22'0 0.0
2017-Nov-30 08:00N 34°32' E 135°22'0 0.0
2017-Nov-30 07:30N 34°32' E 135°22'0 0.0
2017-Nov-30 07:00N 34°32' E 135°22'0 0.0
2017-Nov-30 06:31N 34°32' E 135°22'0 0.0
2017-Nov-30 06:01N 34°32' E 135°22'1 1.7
2017-Nov-30 05:30N 34°33' E 135°21'613.1
2017-Nov-30 05:01N 34°34' E 135°13'713.8
2017-Nov-30 04:30N 34°35' E 135°05'713.7
2017-Nov-30 04:00N 34°36' E 134°57'714.4
2017-Nov-30 03:30N 34°39' E 134°49'713.6
2017-Nov-30 03:00N 34°43' E 134°41'611.9
2017-Nov-30 02:29N 34°46' E 134°35'0 0.0
2017-Nov-29 23:05N 34°46' E 134°35'0 0.7
2017-Nov-29 23:01N 34°46' E 134°35'1 2.1
2017-Nov-29 22:29N 34°45' E 134°36'0 0.0
2017-Nov-29 22:00N 34°45' E 134°36'0 0.1
2017-Nov-29 21:30N 34°45' E 134°36'0 0.1
2017-Nov-29 21:00N 34°45' E 134°36'0 0.0
2017-Nov-29 20:31N 34°45' E 134°36'0 0.0
2017-Nov-29 20:00N 34°45' E 134°36'0 0.0
2017-Nov-29 19:30N 34°45' E 134°36'0 0.0
2017-Nov-29 19:00N 34°45' E 134°36'0 0.6
2017-Nov-29 18:30N 34°45' E 134°35'611.8
2017-Nov-29 18:00N 34°42' E 134°29'712.3
2017-Nov-29 17:28N 34°39' E 134°22'1412.5
2017-Nov-29 16:20N 34°32' E 134°07'  
Track history (hours):
 
Tides and Currents Weather Stations Pressure Air Temp Water Temp Dewpoint Dewpoint Depression Visibility Wind Speed Wind Dir Waves Ship Positions

Kashima Maru No.7

Last reported at 2017-Dec-09 06:03 UTC. Time now 2017-Dec-12 12:22 UTC.
Position N 34°24' E 130°28'.

Length 72 m; draft 4.4 m.

Type: Tanker. MMSI: 432480000.

Date/timePositionNaut miles runAvg speedWind from/ knotsBaromVisibWave heightAir tempDewpointWater temp
2017-Dec-09 06:03N 34°24' E 130°28'111.8
2017-Dec-09 06:00N 34°23' E 130°28'611.6
2017-Dec-09 05:30N 34°19' E 130°33'611.5
2017-Dec-09 05:00N 34°15' E 130°37'611.3
2017-Dec-09 04:30N 34°10' E 130°41'611.2
2017-Dec-09 04:00N 34°06' E 130°45'611.4
2017-Dec-09 03:30N 34°02' E 130°50'510.6
2017-Dec-09 03:00N 33°57' E 130°52'4 8.3
2017-Dec-09 02:30N 33°57' E 130°57'5 9.2
2017-Dec-09 02:00N 33°58' E 131°03'612.7
2017-Dec-09 01:30N 33°54' E 131°09'713.0
2017-Dec-09 01:00N 33°52' E 131°16'612.7
2017-Dec-09 00:30N 33°50' E 131°24'612.6
2017-Dec-09 00:00N 33°49' E 131°31'712.4
2017-Dec-08 23:29N 33°47' E 131°39'612.0
2017-Dec-08 22:59N 33°46' E 131°46'2111.9
2017-Dec-08 21:14N 33°43' E 132°10'2312.7
2017-Dec-08 19:25N 33°53' E 132°35'513.0
2017-Dec-08 19:00N 33°56' E 132°40'9611.1
2017-Dec-08 10:18N 34°28' E 134°30'411.7
2017-Dec-08 10:00N 34°29' E 134°34'611.5
2017-Dec-08 09:30N 34°31' E 134°41'611.4
2017-Dec-08 09:00N 34°33' E 134°47'610.5
2017-Dec-08 08:29N 34°35' E 134°53'510.0
2017-Dec-08 08:00N 34°37' E 134°58'4 8.6
2017-Dec-08 07:30N 34°36' E 135°04'5 9.3
2017-Dec-08 07:00N 34°31' E 135°04'611.9
2017-Dec-08 06:30N 34°26' E 135°03'611.7
2017-Dec-08 06:00N 34°20' E 135°00'611.0
2017-Dec-08 05:30N 34°15' E 135°01'611.9
2017-Dec-08 05:00N 34°10' E 135°05'4 7.0
2017-Dec-08 04:30N 34°07' E 135°08'0 0.0
2017-Dec-08 04:00N 34°07' E 135°08'0 0.0
2017-Dec-08 02:38N 34°07' E 135°08'0 0.0
2017-Dec-08 02:20N 34°07' E 135°08'0 0.0
2017-Dec-08 01:44N 34°07' E 135°08'0 0.0
2017-Dec-08 01:26N 34°07' E 135°08'0 0.0
2017-Dec-08 00:56N 34°07' E 135°08'0 1.0
2017-Dec-08 00:28N 34°07' E 135°08'0 0.0
2017-Dec-07 18:56N 34°07' E 135°07'0 0.1
2017-Dec-07 18:08N 34°07' E 135°07'0 0.0
2017-Dec-07 17:44N 34°07' E 135°07'0 0.0
2017-Dec-07 17:08N 34°07' E 135°07'0 0.0
2017-Dec-07 16:56N 34°07' E 135°07'0 0.0
2017-Dec-07 16:26N 34°07' E 135°07'0 0.0
2017-Dec-07 14:20N 34°07' E 135°07'0 0.0
2017-Dec-07 13:45N 34°07' E 135°07'0 0.0
2017-Dec-07 13:20N 34°07' E 135°07'0 0.0
2017-Dec-07 11:26N 34°07' E 135°07'0 0.0
2017-Dec-07 10:14N 34°07' E 135°07'0 0.0
2017-Dec-07 09:20N 34°07' E 135°07'0 0.1
2017-Dec-07 08:50N 34°07' E 135°07'1 0.2
2017-Dec-07 06:34N 34°07' E 135°08'0 0.0
2017-Dec-07 06:28N 34°07' E 135°08'0 0.0
2017-Dec-07 05:58N 34°07' E 135°08'0 0.6
2017-Dec-07 05:21N 34°07' E 135°08'1 2.2
2017-Dec-07 05:00N 34°08' E 135°07'3 4.0
2017-Dec-07 04:20N 34°09' E 135°10'0 0.0
2017-Dec-07 03:56N 34°09' E 135°10'0 0.0
2017-Dec-07 03:26N 34°09' E 135°10'0 0.0
2017-Dec-07 02:56N 34°09' E 135°10'0 0.0
2017-Dec-07 02:26N 34°09' E 135°10'0 0.1
2017-Dec-07 01:56N 34°09' E 135°10'0 0.1
2017-Dec-07 01:26N 34°09' E 135°10'0 0.0
2017-Dec-07 00:59N 34°09' E 135°10'0 0.0
2017-Dec-07 00:29N 34°09' E 135°10'0 0.0
2017-Dec-06 23:59N 34°09' E 135°10'0 0.0
2017-Dec-06 23:29N 34°09' E 135°10'0 0.0
2017-Dec-06 22:59N 34°09' E 135°10'0 0.0
2017-Dec-06 22:29N 34°09' E 135°10'0 0.0
2017-Dec-06 21:59N 34°09' E 135°10'0 0.0
2017-Dec-06 21:29N 34°09' E 135°10'0 0.0
2017-Dec-06 20:59N 34°09' E 135°10'  
2017-Dec-04 09:53N 34°07' E 135°07'0 0.3
2017-Dec-04 09:28N 34°07' E 135°08'0 0.7
2017-Dec-04 08:50N 34°07' E 135°08'0 0.0
2017-Dec-04 07:26N 34°07' E 135°08'0 0.0
2017-Dec-04 06:50N 34°07' E 135°08'1 1.2
2017-Dec-04 06:25N 34°07' E 135°08'0 0.1
2017-Dec-04 05:55N 34°07' E 135°08'0 0.1
2017-Dec-04 05:22N 34°07' E 135°08'0 0.1
2017-Dec-04 04:55N 34°07' E 135°08'0 0.0
2017-Dec-04 04:19N 34°07' E 135°08'0 0.0
2017-Dec-04 03:55N 34°07' E 135°08'0 0.0
2017-Dec-04 03:19N 34°07' E 135°08'0 0.0
2017-Dec-04 02:19N 34°07' E 135°08'0 0.0
2017-Dec-04 01:07N 34°07' E 135°08'0 0.1
2017-Dec-04 00:46N 34°07' E 135°08'0 0.0
2017-Dec-04 00:13N 34°07' E 135°08'0 0.0
2017-Dec-03 23:58N 34°07' E 135°08'0 0.0
2017-Dec-03 23:25N 34°07' E 135°08'0 0.0
2017-Dec-03 22:55N 34°07' E 135°08'0 0.0
2017-Dec-03 22:25N 34°07' E 135°08'0 0.0
2017-Dec-03 21:46N 34°07' E 135°08'0 0.0
2017-Dec-03 21:13N 34°07' E 135°08'0 0.0
2017-Dec-03 20:43N 34°07' E 135°08'0 0.0
2017-Dec-03 20:13N 34°07' E 135°08'0 0.0
2017-Dec-03 19:55N 34°07' E 135°08'0 0.0
2017-Dec-03 19:25N 34°07' E 135°08'0 0.0
2017-Dec-03 18:49N 34°07' E 135°08'0 0.0
2017-Dec-03 18:28N 34°07' E 135°08'0 0.0
2017-Dec-03 17:31N 34°07' E 135°08'0 1.0
2017-Dec-03 17:28N 34°07' E 135°08'0 0.1
2017-Dec-03 16:31N 34°07' E 135°08'0 0.0
2017-Dec-03 16:25N 34°07' E 135°08'0 0.0
2017-Dec-03 15:49N 34°07' E 135°08'0 0.0
2017-Dec-03 15:19N 34°07' E 135°08'0 0.0
2017-Dec-03 14:55N 34°07' E 135°08'0 0.0
2017-Dec-03 14:13N 34°07' E 135°08'0 0.1
2017-Dec-03 13:52N 34°07' E 135°08'0 0.0
2017-Dec-03 13:07N 34°07' E 135°08'0 0.0
2017-Dec-03 12:55N 34°07' E 135°08'0 0.0
2017-Dec-03 12:19N 34°07' E 135°08'0 0.0
2017-Dec-03 11:49N 34°07' E 135°08'0 0.0
2017-Dec-03 11:25N 34°07' E 135°08'0 0.0
2017-Dec-03 10:55N 34°07' E 135°08'0 0.0
2017-Dec-03 10:25N 34°07' E 135°08'0 0.0
2017-Dec-03 09:52N 34°07' E 135°08'0 0.0
2017-Dec-03 09:25N 34°07' E 135°08'0 0.1
2017-Dec-03 08:55N 34°07' E 135°08'0 0.0
2017-Dec-03 07:49N 34°07' E 135°08'0 0.0
2017-Dec-03 07:25N 34°07' E 135°08'0 0.0
2017-Dec-03 06:49N 34°07' E 135°08'0 0.0
2017-Dec-03 06:25N 34°07' E 135°08'0 0.0
2017-Dec-03 05:55N 34°07' E 135°08'0 0.0
2017-Dec-03 05:25N 34°07' E 135°08'0 0.0
2017-Dec-03 04:55N 34°07' E 135°08'0 0.0
2017-Dec-03 04:25N 34°07' E 135°08'0 0.0
2017-Dec-03 03:55N 34°07' E 135°08'0 0.8
2017-Dec-03 03:19N 34°07' E 135°08'0 0.0
2017-Dec-03 01:43N 34°07' E 135°08'0 0.0
2017-Dec-03 01:25N 34°07' E 135°08'0 0.1
2017-Dec-03 00:46N 34°07' E 135°08'1 0.2
2017-Dec-02 22:13N 34°07' E 135°08'0 0.0
2017-Dec-02 20:46N 34°08' E 135°08'0 0.0
2017-Dec-02 20:25N 34°08' E 135°08'0 0.0
2017-Dec-02 19:07N 34°08' E 135°08'0 0.0
2017-Dec-02 18:49N 34°08' E 135°08'0 0.0
2017-Dec-02 17:01N 34°08' E 135°08'0 0.5
2017-Dec-02 16:55N 34°08' E 135°08'0 0.0
2017-Dec-02 13:31N 34°08' E 135°08'0 0.0
2017-Dec-02 13:19N 34°08' E 135°08'0 0.0
2017-Dec-02 11:46N 34°08' E 135°08'0 0.6
2017-Dec-02 11:30N 34°07' E 135°07'611.5
2017-Dec-02 11:00N 34°07' E 135°00'612.6
2017-Dec-02 10:30N 34°07' E 134°53'712.9
2017-Dec-02 10:00N 34°07' E 134°45'612.4
2017-Dec-02 09:30N 34°12' E 134°40'5 9.4
2017-Dec-02 09:00N 34°16' E 134°37'612.9
2017-Dec-02 08:30N 34°18' E 134°30'8 0.5
2017-Dec-01 14:30N 34°27' E 134°27'612.0
2017-Dec-01 13:58N 34°29' E 134°35'511.9
2017-Dec-01 13:30N 34°31' E 134°41'611.7
2017-Dec-01 13:00N 34°34' E 134°47'611.7
2017-Dec-01 12:30N 34°36' E 134°54'611.9
2017-Dec-01 12:00N 34°37' E 135°01'611.8
2017-Dec-01 11:30N 34°35' E 135°07'612.1
2017-Dec-01 11:00N 34°34' E 135°15'612.0
2017-Dec-01 10:30N 34°33' E 135°22'3 5.5
2017-Dec-01 10:00N 34°32' E 135°25'0 0.0
2017-Dec-01 09:30N 34°32' E 135°25'0 0.0
2017-Dec-01 09:00N 34°32' E 135°25'0 0.0
2017-Dec-01 08:30N 34°32' E 135°25'0 0.0
2017-Dec-01 07:56N 34°32' E 135°25'0 0.0
2017-Dec-01 07:26N 34°32' E 135°25'0 0.0
2017-Dec-01 06:59N 34°32' E 135°25'0 0.0
2017-Dec-01 06:26N 34°32' E 135°25'0 0.0
2017-Dec-01 05:59N 34°32' E 135°25'0 0.0
2017-Dec-01 05:29N 34°32' E 135°25'0 0.0
2017-Dec-01 04:59N 34°32' E 135°25'0 0.0
2017-Dec-01 04:26N 34°32' E 135°25'1 2.7
2017-Dec-01 04:00N 34°32' E 135°24'1 1.8
2017-Dec-01 03:30N 34°33' E 135°23'1 1.6
2017-Dec-01 03:00N 34°32' E 135°22'0 0.0
2017-Dec-01 02:30N 34°32' E 135°22'0 0.0
2017-Dec-01 01:57N 34°32' E 135°22'0 0.0
2017-Dec-01 01:30N 34°32' E 135°22'0 0.0
2017-Dec-01 01:00N 34°32' E 135°22'0 0.0
2017-Dec-01 00:30N 34°32' E 135°22'0 0.0
2017-Nov-30 23:57N 34°32' E 135°22'0 0.0
2017-Nov-30 23:24N 34°32' E 135°22'0 0.0
2017-Nov-30 22:57N 34°32' E 135°22'0 0.0
2017-Nov-30 22:30N 34°32' E 135°22'0 0.0
2017-Nov-30 22:00N 34°32' E 135°22'0 0.0
2017-Nov-30 21:30N 34°32' E 135°22'0 0.0
2017-Nov-30 21:00N 34°32' E 135°22'0 0.0
2017-Nov-30 20:31N 34°32' E 135°22'0 0.0
2017-Nov-30 20:01N 34°32' E 135°22'0 0.0
2017-Nov-30 19:31N 34°32' E 135°22'0 0.0
2017-Nov-30 19:01N 34°32' E 135°22'0 0.0
2017-Nov-30 18:30N 34°32' E 135°22'0 0.0
2017-Nov-30 18:00N 34°32' E 135°22'0 0.0
2017-Nov-30 17:31N 34°32' E 135°22'0 0.0
2017-Nov-30 17:00N 34°32' E 135°22'0 0.0
2017-Nov-30 16:30N 34°32' E 135°22'0 0.0
2017-Nov-30 16:01N 34°32' E 135°22'0 0.0
2017-Nov-30 15:31N 34°32' E 135°22'0 0.1
2017-Nov-30 15:00N 34°32' E 135°22'0 0.1
2017-Nov-30 14:30N 34°32' E 135°22'0 0.0
2017-Nov-30 14:01N 34°32' E 135°22'0 0.1
2017-Nov-30 13:31N 34°32' E 135°22'0 0.0
2017-Nov-30 13:01N 34°32' E 135°22'0 0.0
2017-Nov-30 12:30N 34°32' E 135°22'0 0.0
2017-Nov-30 12:01N 34°32' E 135°22'0 0.1
2017-Nov-30 11:31N 34°32' E 135°22'0 0.0
2017-Nov-30 11:00N 34°32' E 135°22'0 0.0
2017-Nov-30 10:30N 34°32' E 135°22'0 0.1
2017-Nov-30 10:01N 34°32' E 135°22'0 0.0
2017-Nov-30 09:31N 34°32' E 135°22'0 0.1
2017-Nov-30 09:00N 34°32' E 135°22'0 0.0
2017-Nov-30 08:31N 34°32' E 135°22'0 0.0
2017-Nov-30 08:00N 34°32' E 135°22'0 0.0
2017-Nov-30 07:30N 34°32' E 135°22'0 0.0
2017-Nov-30 07:00N 34°32' E 135°22'0 0.0
2017-Nov-30 06:31N 34°32' E 135°22'0 0.0
2017-Nov-30 06:01N 34°32' E 135°22'1 1.7
2017-Nov-30 05:30N 34°33' E 135°21'613.1
2017-Nov-30 05:01N 34°34' E 135°13'713.8
2017-Nov-30 04:30N 34°35' E 135°05'713.7
2017-Nov-30 04:00N 34°36' E 134°57'714.4
2017-Nov-30 03:30N 34°39' E 134°49'713.6
2017-Nov-30 03:00N 34°43' E 134°41'611.9
2017-Nov-30 02:29N 34°46' E 134°35'0 0.0
2017-Nov-29 23:05N 34°46' E 134°35'0 0.7
2017-Nov-29 23:01N 34°46' E 134°35'1 2.1
2017-Nov-29 22:29N 34°45' E 134°36'0 0.0
2017-Nov-29 22:00N 34°45' E 134°36'0 0.1
2017-Nov-29 21:30N 34°45' E 134°36'0 0.1
2017-Nov-29 21:00N 34°45' E 134°36'0 0.0
2017-Nov-29 20:31N 34°45' E 134°36'0 0.0
2017-Nov-29 20:00N 34°45' E 134°36'0 0.0
2017-Nov-29 19:30N 34°45' E 134°36'0 0.0
2017-Nov-29 19:00N 34°45' E 134°36'0 0.6
2017-Nov-29 18:30N 34°45' E 134°35'611.8
2017-Nov-29 18:00N 34°42' E 134°29'712.3
2017-Nov-29 17:28N 34°39' E 134°22'1412.5
2017-Nov-29 16:20N 34°32' E 134°07'  

Dump ship's entire track history